Time;durP1;ratioP1;P1;durP2;ratioP2;P2;SDS_P1;SDS_P2;PMS_P1;PMS_P2;Temp;Humidity;BMP_temperature;BMP_pressure;BME280_temperature;BME280_humidity;BME280_pressure;Samples;Min_cycle;Max_cycle;Signal;HPM_P1;HPM_P2
2023/03/06 00:00:42;;;;;;;72.95;45.80;;;1.50;99.90;;;;;;5022729;28;20026;-68
2023/03/06 00:03:08;;;;;;;68.82;44.17;;;1.50;99.90;;;;;;5040599;28;20436;-68
2023/03/06 00:05:33;;;;;;;74.60;46.25;;;1.40;99.90;;;;;;5034929;28;20030;-68
2023/03/06 00:07:59;;;;;;;80.03;45.45;;;1.30;99.90;;;;;;5018175;28;20120;-68
2023/03/06 00:10:27;;;;;;;73.95;45.03;;;1.30;99.90;;;;;;5040051;28;20040;-68
2023/03/06 00:12:55;;;;;;;71.20;44.55;;;1.20;99.90;;;;;;5040886;28;20030;-68
2023/03/06 00:15:23;;;;;;;76.60;46.55;;;1.20;99.90;;;;;;5040090;28;20104;-69
2023/03/06 00:17:49;;;;;;;74.95;48.33;;;1.10;99.90;;;;;;5040351;28;20103;-69
2023/03/06 00:20:15;;;;;;;74.10;48.42;;;1.10;99.90;;;;;;5040198;28;20064;-69
2023/03/06 00:22:41;;;;;;;73.28;48.55;;;1.10;99.90;;;;;;5020736;28;20017;-69
2023/03/06 00:25:11;;;;;;;80.28;50.95;;;1.00;99.90;;;;;;5036680;28;20030;-69
2023/03/06 00:27:37;;;;;;;74.70;46.70;;;1.00;99.90;;;;;;5016742;28;20026;-69
2023/03/06 00:30:03;;;;;;;75.95;48.05;;;1.00;99.90;;;;;;5017983;28;20044;-69
2023/03/06 00:32:29;;;;;;;79.47;47.40;;;1.00;99.90;;;;;;5039771;28;20112;-69
2023/03/06 00:34:55;;;;;;;70.57;47.95;;;1.00;99.90;;;;;;5021578;28;20125;-68
2023/03/06 00:37:23;;;;;;;75.93;46.55;;;0.90;99.90;;;;;;5040212;28;20052;-69
2023/03/06 00:39:48;;;;;;;74.22;46.92;;;1.00;99.90;;;;;;5039650;28;20017;-69
2023/03/06 00:42:15;;;;;;;74.22;43.75;;;1.00;99.90;;;;;;5039975;28;20064;-69
2023/03/06 00:44:41;;;;;;;62.40;42.47;;;1.00;99.90;;;;;;5039367;28;20398;-69
2023/03/06 00:47:07;;;;;;;72.28;43.70;;;1.00;99.90;;;;;;5039653;28;20033;-69
2023/03/06 00:49:33;;;;;;;73.88;44.38;;;0.90;99.90;;;;;;5021926;28;20033;-69
2023/03/06 00:51:58;;;;;;;66.30;42.30;;;0.90;99.90;;;;;;5039969;28;20030;-69
2023/03/06 00:54:24;;;;;;;66.63;42.60;;;0.90;99.90;;;;;;5039487;28;20040;-69
2023/03/06 00:56:50;;;;;;;72.00;42.53;;;0.80;99.90;;;;;;5039845;28;20022;-69
2023/03/06 00:59:16;;;;;;;66.13;41.97;;;0.80;99.90;;;;;;5039367;28;20059;-69
2023/03/06 01:01:41;;;;;;;71.07;41.25;;;0.80;99.90;;;;;;5021665;28;20404;-69
2023/03/06 01:04:07;;;;;;;67.63;41.60;;;0.70;99.90;;;;;;5039281;28;20452;-68
2023/03/06 01:06:33;;;;;;;68.88;42.42;;;0.80;99.90;;;;;;5021768;28;20137;-68
2023/03/06 01:08:58;;;;;;;74.57;44.38;;;0.70;99.90;;;;;;5038291;28;20417;-69
2023/03/06 01:11:24;;;;;;;74.13;45.47;;;0.80;99.90;;;;;;5039625;28;20067;-69
2023/03/06 01:13:50;;;;;;;70.68;41.42;;;0.80;99.90;;;;;;5039139;28;20024;-69
2023/03/06 01:16:17;;;;;;;69.05;40.88;;;0.80;99.90;;;;;;5038898;28;20037;-68
2023/03/06 01:18:44;;;;;;;78.20;42.72;;;0.80;99.90;;;;;;5021193;28;20030;-68
2023/03/06 01:21:10;;;;;;;70.45;42.35;;;0.80;99.90;;;;;;5021634;28;20055;-69
2023/03/06 01:23:36;;;;;;;70.20;41.53;;;0.80;99.90;;;;;;5038701;28;20036;-69
2023/03/06 01:26:01;;;;;;;69.88;43.45;;;0.70;99.90;;;;;;5039176;28;20041;-69
2023/03/06 01:28:27;;;;;;;68.78;41.25;;;0.70;99.90;;;;;;5038805;28;20034;-69
2023/03/06 01:30:53;;;;;;;66.07;40.30;;;0.70;99.90;;;;;;5038895;28;20025;-68
2023/03/06 01:33:19;;;;;;;59.60;37.80;;;0.70;99.90;;;;;;5020967;28;20017;-69
2023/03/06 01:35:45;;;;;;;65.25;39.83;;;0.70;99.90;;;;;;5021437;28;20638;-69
2023/03/06 01:38:11;;;;;;;68.68;40.45;;;0.60;99.90;;;;;;5021001;28;20153;-69
2023/03/06 01:40:38;;;;;;;60.33;39.83;;;0.60;99.90;;;;;;5021272;28;20036;-69
2023/03/06 01:43:28;;;;;;;72.57;40.17;;;0.60;99.90;;;;;;5038573;28;20021;-69
2023/03/06 01:46:16;;;;;;;62.87;39.87;;;0.50;99.90;;;;;;5038563;28;20032;-69
2023/03/06 01:48:43;;;;;;;75.07;41.88;;;0.50;99.90;;;;;;5011422;28;20033;-68
2023/03/06 01:51:11;;;;;;;67.35;40.92;;;0.40;99.90;;;;;;5038444;28;20051;-68
2023/03/06 01:53:38;;;;;;;64.53;40.20;;;0.40;99.90;;;;;;5038689;28;20078;-69
2023/03/06 01:56:05;;;;;;;66.38;39.80;;;0.40;99.90;;;;;;5038005;28;20013;-68
2023/03/06 01:58:31;;;;;;;66.78;41.13;;;0.40;99.90;;;;;;5038587;28;20030;-69
2023/03/06 02:00:56;;;;;;;61.38;41.15;;;0.30;99.90;;;;;;5037789;28;20020;-69
2023/03/06 02:03:25;;;;;;;71.65;41.90;;;0.30;99.90;;;;;;5038546;28;20194;-69
2023/03/06 02:05:51;;;;;;;69.63;43.53;;;0.30;99.90;;;;;;5037067;28;20034;-68
2023/03/06 02:08:19;;;;;;;71.15;43.95;;;0.20;99.90;;;;;;5038314;28;20095;-69
2023/03/06 02:11:07;;;;;;;73.40;44.13;;;0.20;99.90;;;;;;5038146;28;20025;-68
2023/03/06 02:13:35;;;;;;;65.38;38.88;;;0.20;99.90;;;;;;5032319;28;20091;-68
2023/03/06 02:16:01;;;;;;;64.95;41.38;;;0.10;99.90;;;;;;5020079;28;20037;-68
2023/03/06 02:18:29;;;;;;;78.10;44.50;;;0.10;99.90;;;;;;5038162;28;20050;-68
2023/03/06 02:20:59;;;;;;;63.35;42.05;;;0.20;99.90;;;;;;5037000;28;20567;-68
2023/03/06 02:23:50;;;;;;;61.53;41.10;;;0.20;99.90;;;;;;5019637;28;20067;-68
2023/03/06 02:26:17;;;;;;;67.50;42.15;;;0.20;99.90;;;;;;5038032;28;20032;-69
2023/03/06 02:28:43;;;;;;;64.55;40.53;;;0.10;99.90;;;;;;5037760;28;20029;-69
2023/03/06 02:31:21;;;;;;;65.25;41.38;;;0.10;99.90;;;;;;5037412;28;20025;-69
2023/03/06 02:34:14;;;;;;;66.18;40.83;;;0.00;99.90;;;;;;5038100;28;20036;-68
2023/03/06 02:36:45;;;;;;;69.30;42.10;;;0.00;99.90;;;;;;5037651;28;20482;-68
2023/03/06 02:39:11;;;;;;;;;;;0.00;99.90;;;;;;5019243;28;20032;-68
2023/03/06 02:41:37;;;;;;;69.85;41.15;;;0.00;99.90;;;;;;5037569;28;19971;-69
2023/03/06 02:44:02;;;;;;;74.32;45.47;;;0.00;99.90;;;;;;5038012;28;20029;-69
2023/03/06 02:46:28;;;;;;;77.43;45.20;;;0.00;99.90;;;;;;5036952;28;20087;-69
2023/03/06 02:48:54;;;;;;;74.18;46.58;;;0.00;99.90;;;;;;5037930;28;20032;-69
2023/03/06 02:51:20;;;;;;;62.10;40.72;;;0.00;99.90;;;;;;5037096;28;20044;-69
2023/03/06 02:53:46;;;;;;;67.35;42.00;;;0.00;99.90;;;;;;5037729;28;20049;-69
2023/03/06 02:56:12;;;;;;;62.65;37.88;;;-0.10;99.90;;;;;;5037348;28;20031;-69
2023/03/06 02:58:38;;;;;;;73.40;44.42;;;-0.10;99.90;;;;;;5019865;28;20116;-68
2023/03/06 03:01:04;;;;;;;70.22;45.78;;;-0.10;99.90;;;;;;5036659;28;20045;-69
2023/03/06 03:03:31;;;;;;;68.13;42.75;;;0.00;99.90;;;;;;5037369;28;20183;-69
2023/03/06 03:05:58;;;;;;;68.25;42.95;;;-0.10;99.90;;;;;;5018396;28;20032;-69
2023/03/06 03:08:23;;;;;;;70.95;43.70;;;-0.10;99.90;;;;;;5019472;28;20014;-69
2023/03/06 03:10:49;;;;;;;71.80;41.88;;;-0.20;99.90;;;;;;5036797;28;20085;-68
2023/03/06 03:13:15;;;;;;;67.13;41.60;;;-0.20;99.90;;;;;;5019185;28;20033;-69
2023/03/06 03:15:40;;;;;;;68.35;43.03;;;-0.20;99.90;;;;;;5036186;28;20052;-68
2023/03/06 03:18:06;;;;;;;70.72;40.55;;;-0.20;99.90;;;;;;5037278;28;20029;-68
2023/03/06 03:20:32;;;;;;;69.43;41.63;;;-0.20;99.90;;;;;;5019317;28;20112;-68
2023/03/06 03:22:57;;;;;;;66.80;42.03;;;-0.30;99.90;;;;;;5016172;28;20133;-68
2023/03/06 03:25:25;;;;;;;67.45;42.60;;;-0.30;99.90;;;;;;5030913;28;20036;-68
2023/03/06 03:27:51;;;;;;;68.88;40.80;;;-0.30;99.90;;;;;;5028789;28;20026;-69
2023/03/06 03:30:17;;;;;;;73.97;45.00;;;-0.30;99.90;;;;;;5027918;28;20025;-68
2023/03/06 03:32:42;;;;;;;65.45;42.35;;;-0.30;99.90;;;;;;5034008;28;20032;-69
2023/03/06 03:35:09;;;;;;;72.50;46.22;;;-0.30;99.90;;;;;;5007913;28;20379;-68
2023/03/06 03:37:36;;;;;;;70.35;42.80;;;-0.40;99.90;;;;;;5034048;28;20069;-69
2023/03/06 03:40:03;;;;;;;70.22;42.15;;;-0.40;99.90;;;;;;5031192;28;20037;-69
2023/03/06 03:42:29;;;;;;;68.28;43.70;;;-0.40;99.90;;;;;;5012272;28;20030;-69
2023/03/06 03:44:55;;;;;;;80.80;44.50;;;-0.40;99.90;;;;;;5031049;28;20091;-68
2023/03/06 03:47:21;;;;;;;68.75;42.92;;;-0.40;99.90;;;;;;5010473;28;20022;-69
2023/03/06 03:49:46;;;;;;;75.60;43.80;;;-0.40;99.90;;;;;;5036403;28;20029;-69
2023/03/06 03:52:12;;;;;;;75.80;44.05;;;-0.40;99.90;;;;;;5036948;28;20512;-69
2023/03/06 03:54:37;;;;;;;74.32;44.45;;;-0.40;99.90;;;;;;5036275;28;20056;-68
2023/03/06 03:57:03;;;;;;;74.03;43.28;;;-0.40;99.90;;;;;;5036763;28;20053;-69
2023/03/06 03:59:29;;;;;;;63.55;43.40;;;-0.40;99.90;;;;;;5036218;28;20393;-69
2023/03/06 04:01:55;;;;;;;79.55;46.30;;;-0.40;99.90;;;;;;5036254;28;20144;-69
2023/03/06 04:04:21;;;;;;;68.20;43.45;;;-0.50;99.90;;;;;;5035923;28;20113;-69
2023/03/06 04:06:47;;;;;;;74.85;45.22;;;-0.50;99.90;;;;;;5018196;28;20060;-69
2023/03/06 04:09:13;;;;;;;80.47;47.47;;;-0.50;99.90;;;;;;5036244;28;20030;-68
2023/03/06 04:11:38;;;;;;;76.95;47.05;;;-0.50;99.90;;;;;;5036349;28;20503;-69
2023/03/06 04:14:07;;;;;;;74.70;49.08;;;-0.60;99.90;;;;;;5036279;28;20389;-69
2023/03/06 04:16:32;;;;;;;76.03;45.67;;;-0.50;99.90;;;;;;5035933;28;20037;-68
2023/03/06 04:18:58;;;;;;;70.53;46.63;;;-0.60;99.90;;;;;;5036003;28;20394;-69
2023/03/06 04:21:24;;;;;;;75.47;46.63;;;-0.60;99.90;;;;;;5036498;28;20026;-69
2023/03/06 04:23:50;;;;;;;72.70;44.42;;;-0.60;99.90;;;;;;5018073;28;20046;-68
2023/03/06 04:26:15;;;;;;;71.88;45.70;;;-0.60;99.90;;;;;;5036300;28;20017;-69
2023/03/06 04:28:41;;;;;;;84.25;45.97;;;-0.60;99.90;;;;;;5036098;28;20034;-68
2023/03/06 04:31:06;;;;;;;75.95;47.60;;;-0.50;99.90;;;;;;5036097;28;20142;-69
2023/03/06 04:33:33;;;;;;;76.07;44.85;;;-0.60;99.90;;;;;;5035929;28;20030;-68
2023/03/06 04:35:58;;;;;;;69.18;43.25;;;-0.60;99.90;;;;;;5018443;28;20028;-69
2023/03/06 04:38:24;;;;;;;66.85;42.35;;;-0.50;99.90;;;;;;5017773;28;20022;-68
2023/03/06 04:40:50;;;;;;;66.65;45.42;;;-0.50;99.90;;;;;;5018457;28;20089;-68
2023/03/06 04:43:16;;;;;;;75.80;44.42;;;-0.50;99.90;;;;;;5036120;28;20159;-68
2023/03/06 04:45:41;;;;;;;65.20;40.83;;;-0.40;99.90;;;;;;5039655;28;20084;-68
2023/03/06 04:48:07;;;;;;;79.28;44.47;;;-0.40;99.90;;;;;;5039620;28;20056;-69
2023/03/06 04:50:33;;;;;;;71.07;44.38;;;-0.40;99.90;;;;;;5021870;28;20030;-69
2023/03/06 04:53:00;;;;;;;62.75;41.40;;;-0.40;99.90;;;;;;5039692;28;20025;-68
2023/03/06 04:55:27;;;;;;;66.03;40.45;;;-0.40;99.90;;;;;;5022064;28;20070;-69
2023/03/06 04:57:52;;;;;;;65.30;42.63;;;-0.40;99.90;;;;;;5039219;28;20033;-69
2023/03/06 05:00:24;;;;;;;66.95;43.13;;;-0.30;99.90;;;;;;5021890;28;20018;-69
2023/03/06 05:02:50;;;;;;;73.05;43.78;;;-0.30;99.90;;;;;;5021352;28;20040;-69
2023/03/06 05:05:17;;;;;;;67.60;39.80;;;-0.30;99.90;;;;;;5039589;28;20060;-68
2023/03/06 05:07:43;;;;;;;67.05;42.88;;;-0.30;99.90;;;;;;5039115;28;20034;-68
2023/03/06 05:10:12;;;;;;;63.83;39.22;;;-0.20;99.90;;;;;;5039711;28;20032;-69
2023/03/06 05:12:38;;;;;;;61.85;37.55;;;0.00;99.90;;;;;;5039047;28;20034;-68
2023/03/06 05:15:05;;;;;;;68.03;40.47;;;0.30;99.90;;;;;;5039356;28;20028;-68
2023/03/06 05:17:31;;;;;;;67.40;39.15;;;0.80;99.90;;;;;;5039063;28;20077;-69
2023/03/06 05:19:56;;;;;;;58.20;34.47;;;1.30;99.90;;;;;;5039208;28;20041;-69
2023/03/06 05:22:22;;;;;;;61.92;35.45;;;1.70;99.90;;;;;;5038896;28;20056;-68
2023/03/06 05:24:48;;;;;;;52.28;35.50;;;2.00;99.90;;;;;;5038946;28;20028;-69
2023/03/06 05:27:13;;;;;;;67.88;35.28;;;2.20;99.90;;;;;;5038866;28;20026;-69
2023/03/06 05:29:39;;;;;;;52.17;34.60;;;2.30;99.90;;;;;;5038844;28;20052;-69
2023/03/06 05:32:05;;;;;;;51.15;32.60;;;2.50;99.90;;;;;;5038711;28;20492;-69
2023/03/06 05:34:31;;;;;;;51.47;31.35;;;2.50;99.90;;;;;;5038871;28;20021;-69
2023/03/06 05:36:56;;;;;;;57.20;32.45;;;2.60;99.90;;;;;;5038834;28;20056;-69
2023/03/06 05:39:22;;;;;;;55.40;32.63;;;2.60;99.90;;;;;;5020890;28;20024;-69
2023/03/06 05:41:48;;;;;;;53.47;32.13;;;2.60;99.90;;;;;;5038768;28;20029;-69
2023/03/06 05:44:13;;;;;;;49.92;31.38;;;2.60;99.90;;;;;;5038789;28;20081;-69
2023/03/06 05:46:39;;;;;;;48.22;30.02;;;2.60;99.90;;;;;;5038558;28;20391;-69
2023/03/06 05:49:04;;;;;;;47.08;31.88;;;2.60;99.90;;;;;;5038663;28;20033;-69
2023/03/06 05:51:30;;;;;;;48.83;32.60;;;2.70;99.90;;;;;;5038377;28;20029;-69
2023/03/06 05:53:56;;;;;;;49.15;31.95;;;2.70;99.90;;;;;;5038682;28;20390;-69
2023/03/06 05:56:21;;;;;;;49.40;27.80;;;2.70;99.90;;;;;;5038442;28;20014;-69
2023/03/06 05:58:48;;;;;;;58.30;33.45;;;2.60;99.90;;;;;;5020754;28;20032;-69
2023/03/06 06:01:16;;;;;;;48.33;29.88;;;2.70;99.90;;;;;;5020075;28;20072;-69
2023/03/06 06:03:43;;;;;;;48.75;33.15;;;2.70;99.90;;;;;;5020579;28;20120;-69
2023/03/06 06:06:11;;;;;;;55.20;33.05;;;2.70;99.90;;;;;;5038357;28;20482;-69
2023/03/06 06:08:36;;;;;;;59.92;35.00;;;2.70;99.90;;;;;;5038267;28;20033;-69
2023/03/06 06:11:06;;;;;;;53.08;33.60;;;2.70;99.90;;;;;;5020326;28;20563;-69
2023/03/06 06:13:33;;;;;;;59.72;36.08;;;2.70;99.90;;;;;;5020292;28;20049;-69
2023/03/06 06:15:59;;;;;;;65.45;35.97;;;2.60;99.90;;;;;;5037474;28;20096;-69
2023/03/06 06:18:24;;;;;;;53.05;33.13;;;2.70;99.90;;;;;;5038039;28;20116;-69
2023/03/06 06:20:50;;;;;;;44.67;28.75;;;2.70;99.90;;;;;;5037930;28;20025;-69
2023/03/06 06:23:16;;;;;;;55.30;33.50;;;2.80;99.90;;;;;;5019925;28;20665;-69
2023/03/06 06:25:41;;;;;;;65.45;34.78;;;2.80;99.90;;;;;;5037654;28;20018;-69
2023/03/06 06:28:07;;;;;;;53.80;35.47;;;2.90;99.90;;;;;;5019649;28;20032;-69
2023/03/06 06:30:33;;;;;;;51.85;32.08;;;2.90;99.90;;;;;;5033772;28;20029;-69
2023/03/06 06:32:59;;;;;;;58.40;35.05;;;3.00;99.90;;;;;;5037460;28;20026;-69
2023/03/06 06:35:25;;;;;;;55.20;32.35;;;3.00;99.90;;;;;;5037875;28;20020;-69
2023/03/06 06:37:51;;;;;;;49.47;30.52;;;3.00;99.90;;;;;;5037434;28;20025;-69
2023/03/06 06:40:17;;;;;;;42.78;30.02;;;3.00;99.90;;;;;;5037767;28;20014;-69
2023/03/06 06:42:45;;;;;;;57.95;33.88;;;3.10;99.90;;;;;;5037702;28;20147;-69
2023/03/06 06:45:11;;;;;;;47.80;30.80;;;3.10;99.90;;;;;;5037859;28;20018;-69
2023/03/06 06:47:40;;;;;;;56.80;33.72;;;3.10;99.90;;;;;;5037290;28;20108;-69
2023/03/06 06:50:10;;;;;;;52.85;31.25;;;3.20;99.90;;;;;;5020052;28;20021;-69
2023/03/06 06:52:35;;;;;;;55.45;32.65;;;3.20;99.90;;;;;;5019734;28;20029;-69
2023/03/06 06:55:01;;;;;;;56.25;34.33;;;3.20;99.90;;;;;;5037610;28;20082;-69
2023/03/06 06:57:27;;;;;;;52.95;33.00;;;3.30;99.90;;;;;;5037424;28;20100;-69
2023/03/06 06:59:52;;;;;;;51.35;29.70;;;3.20;99.90;;;;;;5037655;28;20025;-69
2023/03/06 07:02:18;;;;;;;54.30;34.38;;;3.30;99.90;;;;;;5036727;28;20029;-69
2023/03/06 07:04:44;;;;;;;59.90;32.92;;;3.30;99.90;;;;;;5037442;28;20056;-69
2023/03/06 07:07:09;;;;;;;54.55;30.02;;;3.40;99.90;;;;;;5036520;28;20033;-69
2023/03/06 07:09:38;;;;;;;57.22;30.08;;;3.40;99.90;;;;;;5037367;28;20029;-69
2023/03/06 07:12:05;;;;;;;61.35;33.05;;;3.50;99.90;;;;;;5036760;28;20052;-69
2023/03/06 07:14:31;;;;;;;50.85;31.85;;;3.50;99.90;;;;;;5019391;28;20028;-69
2023/03/06 07:16:57;;;;;;;55.53;33.13;;;3.50;99.90;;;;;;5036619;28;20120;-69
2023/03/06 07:19:23;;;;;;;54.10;31.67;;;3.60;99.90;;;;;;5037276;28;20014;-69
2023/03/06 07:21:48;;;;;;;56.75;28.88;;;3.60;99.90;;;;;;5019176;28;20551;-69
2023/03/06 07:24:14;;;;;;;50.72;30.00;;;3.60;99.90;;;;;;5035219;28;20485;-69
2023/03/06 07:26:44;;;;;;;49.90;30.30;;;3.70;99.90;;;;;;5036925;28;20560;-69
2023/03/06 07:29:10;;;;;;;53.00;31.58;;;3.70;99.90;;;;;;5019123;28;20051;-69
2023/03/06 07:31:35;;;;;;;49.40;33.03;;;3.80;99.90;;;;;;5018924;28;20033;-69
2023/03/06 07:34:01;;;;;;;61.03;31.60;;;3.80;99.90;;;;;;5036797;28;20103;-69
2023/03/06 07:36:27;;;;;;;48.88;30.17;;;3.90;99.90;;;;;;5036589;28;20041;-69
2023/03/06 07:38:52;;;;;;;56.45;32.63;;;3.90;99.90;;;;;;5036940;28;20100;-69
2023/03/06 07:41:18;;;;;;;49.42;29.75;;;4.00;99.90;;;;;;5036613;28;20490;-69
2023/03/06 07:43:45;;;;;;;55.53;29.45;;;4.10;99.90;;;;;;5036993;28;20090;-69
2023/03/06 07:46:12;;;;;;;52.45;29.52;;;4.10;99.90;;;;;;5018273;28;20029;-69
2023/03/06 07:48:38;;;;;;;52.17;30.55;;;4.20;99.90;;;;;;5037000;28;20036;-68
2023/03/06 07:51:07;;;;;;;48.85;29.60;;;4.30;99.90;;;;;;5036478;28;20075;-69
2023/03/06 07:53:34;;;;;;;47.53;29.40;;;4.30;99.90;;;;;;5018842;28;20100;-69
2023/03/06 07:56:00;;;;;;;52.97;30.70;;;4.40;99.90;;;;;;5018886;28;20085;-68
2023/03/06 07:58:25;;;;;;;45.15;28.98;;;4.50;99.90;;;;;;5036721;28;20496;-69
2023/03/06 08:00:51;;;;;;;50.00;29.73;;;4.60;99.90;;;;;;5036237;28;20025;-69
2023/03/06 08:03:17;;;;;;;45.30;28.88;;;4.70;99.90;;;;;;5018782;28;20405;-68
2023/03/06 08:05:43;;;;;;;45.13;30.05;;;4.80;99.90;;;;;;5018723;28;20529;-69
2023/03/06 08:08:09;;;;;;;47.13;29.13;;;4.90;99.90;;;;;;5036745;28;20137;-69
2023/03/06 08:10:35;;;;;;;52.15;29.58;;;5.00;99.90;;;;;;5036374;28;20025;-69
2023/03/06 08:13:00;;;;;;;45.13;26.02;;;5.10;99.90;;;;;;5035560;28;20051;-69
2023/03/06 08:15:26;;;;;;;47.28;27.48;;;5.20;99.90;;;;;;5035636;28;20108;-70
2023/03/06 08:17:52;;;;;;;44.70;27.33;;;5.20;99.90;;;;;;5016049;28;20037;-69
2023/03/06 08:20:18;;;;;;;39.75;25.95;;;5.30;99.90;;;;;;5021544;28;20049;-69
2023/03/06 08:22:45;;;;;;;39.35;25.35;;;5.40;99.90;;;;;;5037480;28;20108;-69
2023/03/06 08:25:12;;;;;;;36.95;21.77;;;5.40;99.90;;;;;;5037389;28;20031;-69
2023/03/06 08:27:38;;;;;;;45.50;26.70;;;5.50;99.90;;;;;;5022425;28;20048;-69
2023/03/06 08:30:05;;;;;;;40.67;25.27;;;5.60;99.90;;;;;;5022141;28;20025;-69
2023/03/06 08:32:33;;;;;;;48.17;27.25;;;5.60;99.90;;;;;;5039686;28;20833;-69
2023/03/06 08:35:02;;;;;;;46.85;28.00;;;5.70;99.90;;;;;;5039947;28;20071;-69
2023/03/06 08:37:27;;;;;;;43.60;24.80;;;5.70;99.90;;;;;;5039913;28;20028;-69
2023/03/06 08:39:53;;;;;;;41.80;26.70;;;5.90;99.90;;;;;;5022206;28;20030;-69
2023/03/06 08:42:19;;;;;;;37.15;24.55;;;6.00;99.90;;;;;;5022192;28;20029;-69
2023/03/06 08:44:45;;;;;;;33.63;21.65;;;6.10;99.90;;;;;;5039582;28;20100;-69
2023/03/06 08:47:10;;;;;;;46.13;23.58;;;6.20;99.90;;;;;;5022175;28;20029;-69
2023/03/06 08:49:38;;;;;;;46.28;26.88;;;6.30;99.90;;;;;;5021717;28;20029;-69
2023/03/06 08:52:05;;;;;;;44.67;24.95;;;6.40;99.90;;;;;;5022056;28;20486;-69
2023/03/06 08:54:33;;;;;;;43.60;24.65;;;6.40;99.90;;;;;;5039745;28;20161;-69
2023/03/06 08:56:58;;;;;;;45.13;25.80;;;6.50;99.90;;;;;;5022442;28;20029;-69
2023/03/06 08:59:24;;;;;;;36.15;22.33;;;6.60;99.90;;;;;;5039171;28;20020;-69
2023/03/06 09:01:50;;;;;;;35.05;19.25;;;6.70;99.90;;;;;;5039580;28;20033;-70
2023/03/06 09:04:15;;;;;;;37.17;21.88;;;6.70;99.90;;;;;;5021408;28;20109;-69
2023/03/06 09:06:43;;;;;;;44.53;23.25;;;6.80;99.90;;;;;;5039807;28;20425;-69
2023/03/06 09:09:08;;;;;;;32.97;23.10;;;6.90;99.90;;;;;;5039511;28;20379;-69
2023/03/06 09:11:35;;;;;;;34.92;20.75;;;6.90;99.90;;;;;;5035516;28;20021;-69
2023/03/06 09:14:01;;;;;;;38.67;23.00;;;7.00;99.90;;;;;;5035074;28;20014;-69
2023/03/06 09:16:27;;;;;;;36.25;22.15;;;7.00;99.90;;;;;;5037672;28;20050;-69
2023/03/06 09:18:53;;;;;;;36.13;23.02;;;7.10;99.90;;;;;;5037544;28;20024;-69
2023/03/06 09:21:20;;;;;;;33.47;20.75;;;7.20;99.90;;;;;;5013808;28;20505;-69
2023/03/06 09:23:46;;;;;;;35.60;21.35;;;7.30;99.90;;;;;;5029937;28;20037;-69
2023/03/06 09:26:12;;;;;;;34.88;22.63;;;7.30;99.90;;;;;;5038143;28;20022;-69
2023/03/06 09:28:39;;;;;;;34.63;21.15;;;7.40;99.90;;;;;;5036902;28;20490;-69
2023/03/06 09:31:16;;;;;;;29.33;19.25;;;7.50;99.90;;;;;;5036427;28;20029;-69
2023/03/06 09:33:42;;;;;;;33.30;20.77;;;7.70;99.90;;;;;;5035652;28;20052;-69
2023/03/06 09:36:13;;;;;;;34.75;20.00;;;7.70;99.90;;;;;;5018879;28;20040;-69
2023/03/06 09:38:39;;;;;;;32.30;19.83;;;7.80;99.90;;;;;;5033478;28;20129;-69
2023/03/06 09:41:14;;;;;;;39.25;21.08;;;7.80;99.90;;;;;;5026193;28;20041;-69
2023/03/06 09:43:44;;;;;;;33.30;19.88;;;7.80;99.90;;;;;;5002292;28;20037;-69
2023/03/06 09:46:22;;;;;;;29.57;20.50;;;7.80;99.90;;;;;;5020832;28;20021;-69
2023/03/06 09:49:09;;;;;;;32.53;21.33;;;7.90;99.90;;;;;;5027355;28;20037;-69
2023/03/06 09:51:53;;;;;;;33.22;19.30;;;8.00;99.90;;;;;;5028730;28;20033;-69
2023/03/06 09:54:33;;;;;;;34.25;21.15;;;8.10;99.90;;;;;;5035408;28;20025;-69
2023/03/06 09:56:59;;;;;;;33.22;19.08;;;8.20;99.90;;;;;;5034408;28;20386;-69
2023/03/06 09:59:26;;;;;;;31.50;20.02;;;8.30;99.90;;;;;;5037226;28;20021;-69
2023/03/06 10:02:06;;;;;;;36.28;20.15;;;8.30;99.90;;;;;;5036682;28;21714;-69
2023/03/06 10:04:44;;;;;;;37.67;19.00;;;8.50;99.90;;;;;;5036937;28;20033;-69
2023/03/06 10:07:39;;;;;;;34.47;21.52;;;8.60;99.90;;;;;;5036681;28;20017;-69
2023/03/06 10:10:10;;;;;;;32.60;19.58;;;8.70;99.90;;;;;;5027811;28;20044;-69
2023/03/06 10:12:37;;;;;;;;;;;8.80;99.90;;;;;;5035823;28;20025;-69
2023/03/06 10:15:24;;;;;;;30.58;20.10;;;8.80;99.90;;;;;;5036748;28;19908;-69
2023/03/06 10:17:49;;;;;;;35.58;19.60;;;8.90;99.90;;;;;;5036999;28;20450;-70
2023/03/06 10:20:23;;;;;;;30.88;20.15;;;9.00;99.90;;;;;;5036525;28;20068;-72
2023/03/06 10:22:51;;;;;;;32.88;19.70;;;9.00;99.90;;;;;;5014147;28;20477;-69
2023/03/06 10:25:29;;;;;;;29.23;19.88;;;9.10;99.90;;;;;;5035710;28;20043;-70
2023/03/06 10:28:02;;;;;;;34.00;19.73;;;9.20;99.90;;;;;;5019334;28;20037;-69
2023/03/06 10:30:57;;;;;;;35.10;20.73;;;9.30;99.90;;;;;;5036084;28;20026;-71
2023/03/06 10:33:34;;;;;;;37.55;21.85;;;9.30;99.90;;;;;;5033232;28;20056;-71
2023/03/06 10:36:00;;;;;;;30.02;19.63;;;9.10;99.90;;;;;;5033736;28;20020;-71
2023/03/06 10:38:29;;;;;;;39.50;22.13;;;9.10;99.90;;;;;;5035801;28;20092;-73
2023/03/06 10:41:05;;;;;;;41.17;22.17;;;9.20;99.90;;;;;;5034944;28;20021;-71
2023/03/06 10:43:31;;;;;;;33.35;19.52;;;9.40;99.90;;;;;;5031495;28;20023;-69
2023/03/06 10:45:57;;;;;;;36.22;21.05;;;9.50;99.90;;;;;;5036012;28;20025;-69
2023/03/06 10:48:28;;;;;;;36.63;20.02;;;9.60;99.90;;;;;;5036468;28;20064;-69
2023/03/06 10:51:19;;;;;;;34.75;18.63;;;9.60;99.90;;;;;;5022555;28;20149;-71
2023/03/06 10:54:02;;;;;;;34.00;20.42;;;9.50;99.90;;;;;;5034246;28;20026;-70
2023/03/06 10:56:33;;;;;;;30.30;19.80;;;9.60;99.90;;;;;;5036201;28;20105;-69
2023/03/06 10:59:05;;;;;;;33.95;21.20;;;9.60;99.90;;;;;;5018247;28;20033;-71
2023/03/06 11:01:31;;;;;;;34.63;19.58;;;9.70;99.90;;;;;;5034750;28;20112;-69
2023/03/06 11:04:31;;;;;;;31.15;18.52;;;9.80;99.90;;;;;;5034034;28;20405;-69
2023/03/06 11:07:20;;;;;;;38.20;18.42;;;9.70;99.90;;;;;;5010052;28;20034;-69
2023/03/06 11:09:57;;;;;;;31.92;17.92;;;9.70;99.90;;;;;;5035617;28;20444;-68
2023/03/06 11:12:31;;;;;;;27.05;18.13;;;9.60;99.90;;;;;;5030079;28;20090;-68
2023/03/06 11:15:08;;;;;;;30.23;17.40;;;9.50;99.90;;;;;;5018460;28;20096;-71
2023/03/06 11:17:54;;;;;;;28.33;17.38;;;9.40;99.90;;;;;;5031399;28;20132;-68
2023/03/06 11:20:23;;;;;;;30.92;17.92;;;9.30;99.90;;;;;;5035257;28;20032;-71
2023/03/06 11:23:05;;;;;;;33.15;18.95;;;9.40;99.90;;;;;;5016008;28;20029;-70
2023/03/06 11:25:52;;;;;;;35.78;19.02;;;9.40;99.90;;;;;;5016390;28;20037;-71
2023/03/06 11:28:32;;;;;;;33.42;19.80;;;9.50;99.90;;;;;;5033477;28;20045;-71
2023/03/06 11:31:20;;;;;;;31.85;18.10;;;9.60;99.90;;;;;;5031828;28;20022;-71
2023/03/06 11:33:46;;;;;;;32.58;18.25;;;9.90;99.90;;;;;;5012415;28;20013;-71
2023/03/06 11:36:20;;;;;;;27.95;18.40;;;10.00;99.90;;;;;;5034977;28;20105;-69
2023/03/06 11:38:50;;;;;;;34.65;18.10;;;10.00;99.90;;;;;;5035210;28;20021;-69
2023/03/06 11:41:35;;;;;;;;;;;10.00;99.90;;;;;;5035433;28;20893;-69
2023/03/06 11:44:21;;;;;;;35.33;16.52;;;10.00;99.90;;;;;;5033495;28;20004;-69
2023/03/06 11:46:52;;;;;;;29.85;17.05;;;10.20;99.90;;;;;;5033911;28;20113;-69
2023/03/06 11:49:21;;;;;;;;;;;10.20;99.90;;;;;;5035498;28;20425;-69
2023/03/06 11:51:53;;;;;;;34.95;17.05;;;10.10;99.90;;;;;;5033119;28;19913;-69
2023/03/06 11:54:19;;;;;;;28.98;17.10;;;10.10;99.90;;;;;;5034714;28;20037;-71
2023/03/06 11:56:58;;;;;;;27.08;17.75;;;10.20;99.90;;;;;;5035215;28;20021;-71
2023/03/06 11:59:41;;;;;;;27.30;16.52;;;10.20;99.90;;;;;;5035164;28;20481;-69
2023/03/06 12:02:45;;;;;;;31.00;17.60;;;10.10;99.90;;;;;;5031102;28;20025;-69
2023/03/06 12:05:46;;;;;;;35.38;18.40;;;10.00;99.90;;;;;;4979669;28;20062;-69
2023/03/06 12:08:24;;;;;;;;;;;10.10;99.90;;;;;;5013096;28;20048;-69
2023/03/06 12:11:07;;;;;;;30.38;16.63;;;10.20;99.90;;;;;;5034289;28;19980;-69
2023/03/06 12:13:50;;;;;;;25.75;16.05;;;10.30;99.90;;;;;;5031928;28;20025;-69
2023/03/06 12:16:57;;;;;;;43.25;22.58;;;10.30;99.90;;;;;;5034402;28;20095;-69
2023/03/06 12:19:51;;;;;;;26.38;17.50;;;10.40;99.90;;;;;;5021582;28;20504;-69
2023/03/06 12:22:52;;;;;;;25.42;13.43;;;10.60;99.90;;;;;;5033735;28;20032;-69
2023/03/06 12:25:38;;;;;;;30.88;18.52;;;10.70;99.90;;;;;;5002950;28;20580;-69
2023/03/06 12:28:22;;;;;;;31.17;16.30;;;10.80;99.90;;;;;;5033517;28;20033;-69
2023/03/06 12:31:23;;;;;;;21.67;16.48;;;10.90;99.90;;;;;;5034424;28;20026;-69
2023/03/06 12:34:11;;;;;;;23.95;13.80;;;11.00;99.90;;;;;;5031462;28;20029;-69
2023/03/06 12:36:46;;;;;;;25.13;15.50;;;10.90;99.90;;;;;;5016484;28;20036;-69
2023/03/06 12:39:34;;;;;;;34.72;15.07;;;10.80;99.90;;;;;;5034392;28;20025;-69
2023/03/06 12:42:23;;;;;;;21.50;15.30;;;10.80;99.90;;;;;;5019634;28;20030;-69
2023/03/06 12:45:28;;;;;;;30.77;14.55;;;10.70;99.90;;;;;;5026241;28;20095;-70
2023/03/06 12:47:55;;;;;;;26.58;15.23;;;10.50;99.90;;;;;;5034681;28;20022;-69